createdAt,value
2023-01-23T00:02:10.986Z,22.98
2023-01-23T00:04:37.711Z,19.60
2023-01-23T00:07:04.499Z,17.27
2023-01-23T00:09:31.799Z,20.20
2023-01-23T00:11:58.837Z,19.17
2023-01-23T00:14:25.546Z,26.58
2023-01-23T00:16:52.306Z,21.50
2023-01-23T00:19:19.290Z,24.58
2023-01-23T00:21:45.973Z,20.67
2023-01-23T00:24:12.993Z,19.10
2023-01-23T00:26:40.255Z,17.98
2023-01-23T00:29:07.445Z,18.15
2023-01-23T00:31:37.225Z,19.35
2023-01-23T00:34:10.937Z,19.05
2023-01-23T00:36:39.795Z,19.90
2023-01-23T00:39:21.154Z,18.17
2023-01-23T00:41:49.021Z,20.50
2023-01-23T00:44:16.316Z,16.60
2023-01-23T00:46:43.140Z,20.70
2023-01-23T00:49:09.929Z,18.02
2023-01-23T00:51:36.638Z,21.92
2023-01-23T00:54:04.925Z,21.73
2023-01-23T00:56:31.560Z,19.17
2023-01-23T00:58:58.398Z,18.08
2023-01-23T01:01:26.187Z,16.60
2023-01-23T01:03:52.864Z,18.48
2023-01-23T01:06:19.592Z,19.92
2023-01-23T01:08:47.911Z,16.98
2023-01-23T01:11:14.828Z,22.00
2023-01-23T01:13:41.814Z,19.25
2023-01-23T01:16:08.606Z,20.70
2023-01-23T01:18:35.427Z,18.08
2023-01-23T01:21:06.480Z,18.05
2023-01-23T01:23:33.169Z,19.00
2023-01-23T01:26:00.731Z,19.90
2023-01-23T01:28:32.766Z,19.75
2023-01-23T01:31:07.772Z,18.38
2023-01-23T01:33:35.081Z,18.90
2023-01-23T01:36:02.288Z,19.17
2023-01-23T01:38:29.022Z,23.90
2023-01-23T01:40:57.383Z,19.77
2023-01-23T01:43:26.824Z,18.95
2023-01-23T01:46:13.162Z,19.25
2023-01-23T01:48:56.623Z,19.70
2023-01-23T01:51:32.591Z,17.98
2023-01-23T01:54:34.376Z,20.25
2023-01-23T01:57:15.326Z,20.05
2023-01-23T02:00:18.998Z,19.75
2023-01-23T02:02:55.132Z,16.00
2023-01-23T02:05:26.744Z,19.48
2023-01-23T02:08:05.715Z,18.48
2023-01-23T02:10:34.786Z,16.23
2023-01-23T02:13:36.063Z,25.10
2023-01-23T02:16:08.420Z,20.40
2023-01-23T02:18:36.992Z,20.58
2023-01-23T02:21:06.360Z,20.83
2023-01-23T02:26:30.078Z,20.48
2023-01-23T02:28:57.455Z,22.27
2023-01-23T02:31:24.359Z,19.80
2023-01-23T02:33:53.500Z,25.95
2023-01-23T02:36:27.017Z,21.10
2023-01-23T02:39:07.341Z,25.45
2023-01-23T02:41:38.634Z,19.95
2023-01-23T02:44:12.685Z,20.00
2023-01-23T02:46:40.238Z,21.98
2023-01-23T02:49:06.966Z,28.75
2023-01-23T02:51:33.699Z,18.08
2023-01-23T02:54:00.597Z,19.17
2023-01-23T02:56:27.341Z,24.70
2023-01-23T02:59:12.772Z,19.55
2023-01-23T03:01:39.762Z,22.50
2023-01-23T03:04:06.810Z,23.88
2023-01-23T03:06:38.665Z,27.55
2023-01-23T03:09:08.631Z,21.15
2023-01-23T03:11:36.735Z,21.95
2023-01-23T03:14:03.764Z,21.27
2023-01-23T03:16:30.638Z,23.13
2023-01-23T03:18:58.289Z,21.85
2023-01-23T03:21:25.062Z,22.55
2023-01-23T03:23:52.302Z,25.30
2023-01-23T03:26:18.992Z,24.33
2023-01-23T03:29:04.509Z,28.73
2023-01-23T03:31:31.234Z,27.10
2023-01-23T03:33:58.031Z,19.38
2023-01-23T03:36:24.689Z,21.80
2023-01-23T03:39:09.798Z,19.67
2023-01-23T03:41:38.265Z,24.13
2023-01-23T03:44:05.049Z,20.05
2023-01-23T03:46:31.659Z,20.90
2023-01-23T03:48:58.384Z,20.58
2023-01-23T03:51:25.188Z,24.00
2023-01-23T03:53:54.033Z,23.02
2023-01-23T03:56:20.711Z,22.33
2023-01-23T03:58:47.490Z,19.48
2023-01-23T04:01:14.212Z,24.05
2023-01-23T04:03:40.861Z,18.55
2023-01-23T04:06:07.542Z,35.65
2023-01-23T04:08:34.276Z,27.77
2023-01-23T04:11:06.500Z,22.48
2023-01-23T04:13:33.571Z,29.73
2023-01-23T04:16:00.976Z,26.45
2023-01-23T04:18:28.215Z,29.35
2023-01-23T04:20:55.198Z,29.80
2023-01-23T04:23:22.742Z,28.63
2023-01-23T04:25:50.336Z,28.83
2023-01-23T04:28:17.555Z,26.90
2023-01-23T04:30:44.326Z,30.75
2023-01-23T04:33:11.466Z,27.25
2023-01-23T04:35:38.140Z,26.92
2023-01-23T04:38:04.909Z,26.60
2023-01-23T04:40:32.830Z,30.13
2023-01-23T04:42:59.522Z,26.92
2023-01-23T04:45:26.261Z,33.92
2023-01-23T04:47:52.952Z,26.23
2023-01-23T04:50:20.160Z,31.27
2023-01-23T04:52:46.910Z,28.77
2023-01-23T04:55:14.100Z,30.80
2023-01-23T04:57:40.865Z,28.13
2023-01-23T05:00:10.657Z,35.10
2023-01-23T05:02:37.475Z,23.35
2023-01-23T05:05:04.465Z,29.55
2023-01-23T05:07:31.152Z,33.97
2023-01-23T05:09:57.806Z,32.00
2023-01-23T05:12:24.485Z,28.38
2023-01-23T05:14:51.174Z,31.33
2023-01-23T05:17:17.890Z,26.52
2023-01-23T05:19:44.517Z,30.30
2023-01-23T05:22:11.253Z,34.65
2023-01-23T05:24:39.170Z,37.83
2023-01-23T05:27:06.197Z,22.10
2023-01-23T05:29:33.977Z,29.02
2023-01-23T05:32:00.740Z,25.63
2023-01-23T05:34:27.579Z,29.73
2023-01-23T05:36:54.678Z,34.03
2023-01-23T05:39:22.274Z,29.00
2023-01-23T05:41:48.905Z,28.73
2023-01-23T05:44:15.580Z,25.30
2023-01-23T05:46:42.269Z,28.20
2023-01-23T05:49:08.933Z,32.00
2023-01-23T05:51:35.682Z,32.50
2023-01-23T05:54:02.985Z,28.88
2023-01-23T05:56:29.868Z,29.75
2023-01-23T05:58:56.525Z,26.67
2023-01-23T06:01:23.247Z,21.05
2023-01-23T06:03:49.976Z,21.33
2023-01-23T06:06:16.784Z,26.42
2023-01-23T06:08:43.446Z,25.25
2023-01-23T06:11:10.172Z,25.15
2023-01-23T06:13:37.003Z,26.98
2023-01-23T06:16:03.892Z,26.88
2023-01-23T06:18:30.670Z,20.80
2023-01-23T06:20:59.415Z,24.67
2023-01-23T06:23:26.464Z,27.80
2023-01-23T06:25:53.445Z,23.77
2023-01-23T06:28:21.541Z,26.80
2023-01-23T06:30:48.273Z,23.00
2023-01-23T06:33:14.988Z,25.85
2023-01-23T06:35:42.223Z,26.52
2023-01-23T06:38:09.013Z,24.63
2023-01-23T06:40:35.654Z,24.27
2023-01-23T06:43:02.320Z,27.15
2023-01-23T06:45:28.962Z,23.92
2023-01-23T06:47:55.657Z,20.83
2023-01-23T06:50:22.529Z,25.30
2023-01-23T06:52:49.441Z,30.67
2023-01-23T06:55:16.202Z,20.02
2023-01-23T06:57:42.887Z,22.45
2023-01-23T07:00:13.156Z,24.70
2023-01-23T07:02:40.097Z,24.30
2023-01-23T07:05:07.071Z,25.30
2023-01-23T07:07:33.842Z,25.42
2023-01-23T07:10:00.555Z,27.45
2023-01-23T07:12:27.340Z,30.73
2023-01-23T07:14:54.080Z,21.40
2023-01-23T07:17:20.736Z,20.75
2023-01-23T07:19:47.400Z,21.67
2023-01-23T07:22:18.317Z,22.48
2023-01-23T07:24:45.509Z,25.63
2023-01-23T07:27:12.221Z,23.95
2023-01-23T07:29:38.880Z,23.38
2023-01-23T07:32:10.840Z,24.20
2023-01-23T07:34:37.776Z,22.50
2023-01-23T07:37:04.447Z,23.70
2023-01-23T07:39:32.739Z,27.35
2023-01-23T07:41:59.619Z,18.52
2023-01-23T07:44:26.392Z,21.55
2023-01-23T07:46:53.119Z,28.83
2023-01-23T07:49:19.988Z,29.73
2023-01-23T07:51:46.769Z,19.83
2023-01-23T07:54:13.493Z,28.63
2023-01-23T07:56:40.331Z,19.75
2023-01-23T07:59:06.969Z,23.77
2023-01-23T08:01:33.923Z,26.98
2023-01-23T08:04:00.687Z,26.88
2023-01-23T08:06:27.340Z,23.63
2023-01-23T08:08:54.023Z,24.45
2023-01-23T08:11:20.675Z,36.67
2023-01-23T08:13:52.150Z,30.50
2023-01-23T08:16:18.876Z,32.22
2023-01-23T08:18:45.652Z,28.42
2023-01-23T08:21:12.357Z,24.30
2023-01-23T08:23:39.239Z,31.25
2023-01-23T08:26:07.731Z,27.90
2023-01-23T08:28:36.464Z,29.13
2023-01-23T08:31:06.643Z,25.10
2023-01-23T08:33:34.666Z,27.48
2023-01-23T08:36:01.959Z,26.63
2023-01-23T08:38:29.059Z,20.52
2023-01-23T08:41:00.231Z,27.25
2023-01-23T08:43:27.293Z,24.45
2023-01-23T08:45:56.025Z,20.02
2023-01-23T08:48:24.813Z,20.90
2023-01-23T08:50:52.811Z,24.75
2023-01-23T08:53:19.582Z,24.33
2023-01-23T08:55:46.391Z,23.27
2023-01-23T08:58:13.239Z,23.10
2023-01-23T09:00:40.867Z,18.42
2023-01-23T09:03:09.865Z,26.10
2023-01-23T09:05:37.803Z,23.77
2023-01-23T09:08:05.168Z,20.23
2023-01-23T09:10:32.021Z,26.05
2023-01-23T09:12:59.448Z,22.45
2023-01-23T09:15:26.202Z,23.35
2023-01-23T09:17:52.870Z,26.23
2023-01-23T09:20:19.909Z,23.95
2023-01-23T09:22:46.729Z,24.20
2023-01-23T09:25:14.349Z,24.80
2023-01-23T09:27:41.177Z,31.00
2023-01-23T09:30:08.453Z,23.58
2023-01-23T09:32:35.164Z,25.73
2023-01-23T09:35:01.977Z,23.15
2023-01-23T09:37:58.565Z,24.00
2023-01-23T09:40:28.728Z,26.20
2023-01-23T09:42:59.461Z,30.67
2023-01-23T09:45:27.277Z,35.78
2023-01-23T09:48:15.473Z,21.83
2023-01-23T09:50:53.691Z,28.38
2023-01-23T09:53:23.459Z,29.80
2023-01-23T09:56:01.953Z,28.05
2023-01-23T09:58:34.412Z,25.33
2023-01-23T10:01:01.082Z,44.85
2023-01-23T10:03:30.300Z,27.98
2023-01-23T10:08:39.509Z,21.60
2023-01-23T10:11:34.177Z,42.85
2023-01-23T10:14:17.436Z,33.72
2023-01-23T10:17:16.759Z,26.92
2023-01-23T10:20:11.264Z,27.27
2023-01-23T10:22:42.747Z,27.77
2023-01-23T10:25:13.513Z,21.92
2023-01-23T10:27:43.963Z,26.00
2023-01-23T10:30:19.720Z,33.22
2023-01-23T10:32:58.017Z,37.20
2023-01-23T10:35:37.056Z,31.85
2023-01-23T10:38:41.496Z,32.03
2023-01-23T10:41:14.716Z,29.42
2023-01-23T10:43:56.831Z,23.75
2023-01-23T10:46:59.966Z,27.10
2023-01-23T10:49:41.300Z,28.80
2023-01-23T10:52:37.883Z,32.10
2023-01-23T10:55:10.139Z,26.73
2023-01-23T10:57:49.011Z,23.17
2023-01-23T11:00:27.165Z,23.35
2023-01-23T11:02:55.045Z,22.92
2023-01-23T11:06:11.645Z,22.60
2023-01-23T11:08:58.684Z,32.70
2023-01-23T11:11:27.752Z,22.95
2023-01-23T11:14:12.449Z,28.60
2023-01-23T11:16:39.231Z,28.30
2023-01-23T11:19:11.017Z,32.88
2023-01-23T11:21:58.801Z,26.30
2023-01-23T11:24:38.603Z,28.55
2023-01-23T11:27:15.267Z,27.23
2023-01-23T11:32:16.307Z,37.17
2023-01-23T11:34:50.637Z,29.63
2023-01-23T11:37:37.028Z,28.38
2023-01-23T11:40:19.583Z,31.00
2023-01-23T11:42:46.949Z,34.63
2023-01-23T11:45:18.829Z,25.48
2023-01-23T11:48:03.936Z,40.08
2023-01-23T11:50:54.879Z,39.22
2023-01-23T11:53:43.716Z,29.75
2023-01-23T11:56:10.345Z,21.17
2023-01-23T11:58:52.197Z,26.38
2023-01-23T12:02:02.228Z,32.58
2023-01-23T12:04:32.667Z,26.15
2023-01-23T12:09:50.270Z,31.80
2023-01-23T12:12:38.253Z,30.02
2023-01-23T12:17:57.697Z,36.92
2023-01-23T12:20:30.032Z,32.45
2023-01-23T12:23:27.342Z,34.33
2023-01-23T12:26:18.719Z,37.80
2023-01-23T12:29:11.332Z,37.53
2023-01-23T12:32:06.062Z,30.85
2023-01-23T12:35:14.606Z,31.58
2023-01-23T12:37:42.297Z,35.92
2023-01-23T12:40:22.729Z,32.40
2023-01-23T12:42:53.206Z,30.83
2023-01-23T12:45:25.263Z,28.40
2023-01-23T12:48:23.222Z,26.35
2023-01-23T12:50:53.908Z,34.30
2023-01-23T12:53:24.915Z,26.90
2023-01-23T12:55:57.785Z,32.85
2023-01-23T12:58:28.276Z,28.45
2023-01-23T13:01:24.934Z,39.55
2023-01-23T13:04:21.152Z,28.48
2023-01-23T13:07:09.257Z,35.95
2023-01-23T13:10:05.226Z,28.92
2023-01-23T13:12:32.235Z,36.63
2023-01-23T13:15:22.405Z,30.67
2023-01-23T13:18:01.039Z,36.25
2023-01-23T13:20:48.494Z,38.88
2023-01-23T13:23:27.246Z,33.95
2023-01-23T13:26:17.332Z,38.50
2023-01-23T13:28:47.955Z,35.15
2023-01-23T13:31:40.593Z,39.47
2023-01-23T13:34:19.242Z,37.88
2023-01-23T13:36:47.541Z,35.72
2023-01-23T13:39:17.388Z,40.75
2023-01-23T13:41:45.134Z,48.40
2023-01-23T13:44:27.139Z,33.80
2023-01-23T14:21:59.561Z,28.27
2023-01-23T14:24:30.363Z,29.10
2023-01-23T14:27:07.283Z,36.25
2023-01-23T14:29:34.659Z,32.00
2023-01-23T14:32:01.355Z,28.33
2023-01-23T14:34:28.334Z,43.17
2023-01-23T14:37:06.212Z,47.78
2023-01-23T14:39:35.054Z,38.70
2023-01-23T14:42:04.438Z,34.88
2023-01-23T14:44:42.985Z,45.08
2023-01-23T14:47:18.706Z,33.92
2023-01-23T14:49:48.282Z,41.67
2023-01-23T14:52:24.004Z,37.40
2023-01-23T14:57:23.265Z,44.65
2023-01-23T14:59:51.010Z,36.90
2023-01-23T15:02:36.555Z,41.85
2023-01-23T15:05:29.809Z,40.45
2023-01-23T15:07:57.745Z,50.58
2023-01-23T15:10:27.738Z,37.53
2023-01-23T15:13:01.515Z,43.00
2023-01-23T15:15:29.852Z,47.47
2023-01-23T15:17:57.214Z,40.90
2023-01-23T15:20:41.654Z,40.47
2023-01-23T15:23:22.653Z,48.40
2023-01-23T15:25:57.482Z,48.45
2023-01-23T15:28:48.948Z,36.97
2023-01-23T15:31:27.677Z,42.70
2023-01-23T15:33:56.076Z,32.65
2023-01-23T15:36:29.001Z,46.80
2023-01-23T15:38:58.085Z,39.70
2023-01-23T15:41:51.903Z,37.58
2023-01-23T15:44:21.649Z,37.45
2023-01-23T15:46:48.455Z,37.70
2023-01-23T15:49:24.977Z,39.50
2023-01-23T15:51:54.348Z,43.53
2023-01-23T15:54:32.810Z,41.38
2023-01-23T15:57:07.527Z,37.97
2023-01-23T15:59:35.275Z,37.22
2023-01-23T16:02:03.029Z,43.88
2023-01-23T16:04:29.684Z,42.13
2023-01-23T16:06:58.187Z,34.05
2023-01-23T16:09:33.193Z,34.83
2023-01-23T16:12:00.325Z,36.08
2023-01-23T16:14:27.564Z,34.15
2023-01-23T16:16:56.583Z,30.67
2023-01-23T16:19:23.403Z,31.67
2023-01-23T16:22:03.921Z,40.50
2023-01-23T16:24:35.262Z,31.42
2023-01-23T16:27:02.653Z,37.92
2023-01-23T16:29:31.785Z,35.00
2023-01-23T16:32:00.016Z,38.92
2023-01-23T16:34:27.022Z,36.60
2023-01-23T16:36:55.479Z,34.97
2023-01-23T16:39:24.635Z,40.30
2023-01-23T16:41:51.370Z,39.83
2023-01-23T16:44:19.280Z,38.45
2023-01-23T16:46:46.489Z,29.98
2023-01-23T16:49:13.880Z,39.15
2023-01-23T16:51:48.261Z,38.97
2023-01-23T16:54:21.823Z,33.72
2023-01-23T16:56:53.042Z,36.17
2023-01-23T16:59:22.653Z,37.65
2023-01-23T17:01:50.964Z,35.67
2023-01-23T17:04:19.721Z,29.70
2023-01-23T17:06:46.963Z,34.47
2023-01-23T17:09:15.022Z,37.58
2023-01-23T17:12:10.386Z,27.15
2023-01-23T17:14:37.870Z,37.10
2023-01-23T17:17:08.592Z,28.27
2023-01-23T17:19:40.431Z,38.25
2023-01-23T17:22:12.828Z,29.25
2023-01-23T17:24:39.460Z,30.55
2023-01-23T17:27:06.118Z,35.00
2023-01-23T17:29:32.815Z,86.57
2023-01-23T17:31:59.518Z,45.75
2023-01-23T17:34:28.208Z,25.83
2023-01-23T17:36:57.277Z,35.85
2023-01-23T17:39:24.215Z,26.95
2023-01-23T17:41:52.962Z,34.60
2023-01-23T17:44:19.681Z,23.35
2023-01-23T17:46:47.297Z,39.50
2023-01-23T17:49:31.372Z,27.83
2023-01-23T17:51:59.588Z,41.63
2023-01-23T17:54:26.613Z,41.72
2023-01-23T17:56:53.855Z,24.85
2023-01-23T17:59:20.603Z,57.53
2023-01-23T18:01:47.845Z,26.38
2023-01-23T18:04:20.643Z,30.63
2023-01-23T18:06:48.963Z,45.15
2023-01-23T18:09:16.154Z,22.27
2023-01-23T18:11:51.623Z,25.58
2023-01-23T18:14:41.695Z,24.00
2023-01-23T18:17:27.464Z,18.70
2023-01-23T18:19:56.649Z,23.27
2023-01-23T18:22:23.599Z,26.83
2023-01-23T18:24:50.524Z,21.88
2023-01-23T18:27:27.294Z,28.02
2023-01-23T18:30:21.099Z,20.13
2023-01-23T18:33:22.455Z,18.90
2023-01-23T18:36:18.279Z,19.05
2023-01-23T18:39:03.443Z,20.67
2023-01-23T18:41:30.262Z,23.15
2023-01-23T18:44:03.154Z,26.27
2023-01-23T18:46:29.981Z,27.83
2023-01-23T18:48:57.013Z,21.10
2023-01-23T18:51:54.680Z,29.40
2023-01-23T18:54:45.581Z,25.52
2023-01-23T18:57:22.833Z,29.63
2023-01-23T19:00:15.939Z,17.63
2023-01-23T19:02:52.329Z,14.60
2023-01-23T19:05:23.756Z,20.77
2023-01-23T19:07:50.855Z,19.88
2023-01-23T19:10:20.620Z,17.38
2023-01-23T19:13:25.910Z,18.38
2023-01-23T19:16:08.428Z,18.92
2023-01-23T19:18:40.934Z,16.58
2023-01-23T19:21:15.557Z,15.82
2023-01-23T19:23:58.433Z,18.60
2023-01-23T19:26:28.366Z,21.02
2023-01-23T19:28:59.691Z,18.50
2023-01-23T19:31:27.800Z,19.25
2023-01-23T19:33:55.091Z,18.30
2023-01-23T19:36:22.688Z,19.80
2023-01-23T19:38:50.178Z,35.75
2023-01-23T19:41:24.144Z,21.30
2023-01-23T19:43:55.032Z,25.65
2023-01-23T19:46:25.641Z,20.88
2023-01-23T19:48:52.416Z,18.02
2023-01-23T19:51:20.286Z,19.75
2023-01-23T19:53:47.350Z,16.58
2023-01-23T19:56:16.015Z,17.23
2023-01-23T19:58:43.004Z,20.58
2023-01-23T20:01:35.030Z,15.43
2023-01-23T20:04:03.586Z,17.30
2023-01-23T20:06:30.369Z,22.88
2023-01-23T20:08:57.099Z,15.93
2023-01-23T20:11:23.721Z,16.27
2023-01-23T20:13:50.383Z,27.58
2023-01-23T20:16:24.247Z,32.10
2023-01-23T20:18:51.310Z,26.80
2023-01-23T20:21:19.327Z,35.63
2023-01-23T20:23:46.606Z,28.23
2023-01-23T20:26:13.783Z,15.88
2023-01-23T20:28:40.959Z,18.85
2023-01-23T20:31:12.356Z,19.00
2023-01-23T20:33:42.088Z,15.65
2023-01-23T20:36:11.010Z,19.33
2023-01-23T20:38:38.759Z,18.58
2023-01-23T20:41:06.843Z,15.52
2023-01-23T20:43:34.429Z,19.10
2023-01-23T20:46:01.464Z,18.95
2023-01-23T20:48:28.171Z,18.58
2023-01-23T20:50:56.337Z,14.85
2023-01-23T20:53:32.087Z,21.10
2023-01-23T20:58:49.860Z,16.95
2023-01-23T21:01:18.192Z,14.30
2023-01-23T21:03:47.356Z,20.23
2023-01-23T21:06:15.492Z,20.30
2023-01-23T21:08:42.726Z,19.85
2023-01-23T21:11:13.151Z,17.23
2023-01-23T21:13:40.300Z,17.80
2023-01-23T21:16:10.846Z,15.68
2023-01-23T21:18:41.369Z,15.90
2023-01-23T21:21:09.005Z,17.35
2023-01-23T21:23:36.296Z,16.77
2023-01-23T21:26:03.761Z,16.08
2023-01-23T21:28:32.616Z,15.95
2023-01-23T21:30:59.390Z,23.65
2023-01-23T21:33:26.247Z,19.40
2023-01-23T21:35:53.993Z,19.98
2023-01-23T21:38:22.926Z,18.60
2023-01-23T21:40:49.741Z,17.92
2023-01-23T21:43:16.423Z,16.42
2023-01-23T21:45:43.108Z,14.98
2023-01-23T21:48:09.805Z,16.80
2023-01-23T21:50:36.791Z,19.48
2023-01-23T21:53:03.638Z,19.63
2023-01-23T21:55:30.309Z,16.58
2023-01-23T21:57:56.968Z,16.52
2023-01-23T22:00:42.371Z,21.02
2023-01-23T22:03:09.044Z,18.52
2023-01-23T22:05:35.780Z,20.23
2023-01-23T22:08:03.657Z,24.40
2023-01-23T22:10:31.050Z,19.30
2023-01-23T22:12:58.058Z,14.15
2023-01-23T22:15:24.811Z,27.05
2023-01-23T22:17:51.778Z,16.42
2023-01-23T22:20:18.995Z,21.40
2023-01-23T22:22:45.650Z,16.98
2023-01-23T22:25:12.399Z,17.73
2023-01-23T22:27:39.097Z,15.93
2023-01-23T22:30:06.275Z,18.63
2023-01-23T22:32:34.545Z,16.35
2023-01-23T22:35:03.069Z,14.98
2023-01-23T22:37:30.909Z,19.58
2023-01-23T22:39:57.622Z,17.85
2023-01-23T22:42:24.285Z,17.50
2023-01-23T22:44:51.038Z,21.88
2023-01-23T22:47:17.732Z,15.52
2023-01-23T22:49:44.367Z,20.60
2023-01-23T22:52:11.107Z,18.67
2023-01-23T22:54:37.786Z,20.25
2023-01-23T22:57:04.462Z,27.52
2023-01-23T22:59:31.145Z,16.42
2023-01-23T23:01:57.827Z,20.58
2023-01-23T23:04:26.060Z,21.80
2023-01-23T23:06:52.777Z,20.52
2023-01-23T23:09:19.708Z,20.15
2023-01-23T23:11:49.082Z,20.60
2023-01-23T23:14:16.027Z,18.70
2023-01-23T23:16:42.717Z,24.00
2023-01-23T23:19:09.923Z,21.85
2023-01-23T23:21:37.591Z,17.08
2023-01-23T23:24:07.035Z,23.60
2023-01-23T23:29:01.885Z,18.25
2023-01-23T23:31:28.915Z,19.13
2023-01-23T23:33:56.079Z,17.77
2023-01-23T23:36:22.796Z,19.02
2023-01-23T23:38:49.467Z,23.88
2023-01-23T23:41:16.641Z,16.95
2023-01-23T23:43:43.548Z,18.02
2023-01-23T23:46:14.076Z,16.00
2023-01-23T23:48:41.152Z,20.35
2023-01-23T23:51:09.528Z,29.65
2023-01-23T23:53:36.473Z,17.95
2023-01-23T23:56:04.508Z,21.30
2023-01-23T23:58:31.506Z,16.50
